createdAt,value
2022-12-08T00:02:16.199Z,0.54
2022-12-08T00:07:38.095Z,0.53
2022-12-08T00:12:40.945Z,0.54
2022-12-08T00:17:43.645Z,0.51
2022-12-08T00:22:46.344Z,0.52
2022-12-08T00:27:49.150Z,0.49
2022-12-08T00:32:51.872Z,0.47
2022-12-08T00:38:00.431Z,0.49
2022-12-08T00:43:03.650Z,0.52
2022-12-08T00:48:07.327Z,0.56
2022-12-08T00:53:10.114Z,0.60
2022-12-08T00:58:13.221Z,0.62
2022-12-08T01:03:16.003Z,0.62
2022-12-08T01:08:18.844Z,0.59
2022-12-08T01:13:22.033Z,0.61
2022-12-08T01:18:24.927Z,0.63
2022-12-08T01:23:28.563Z,0.65
2022-12-08T01:28:32.158Z,0.70
2022-12-08T01:33:34.880Z,0.73
2022-12-08T01:38:37.680Z,0.75
2022-12-08T01:43:55.119Z,0.75
2022-12-08T01:49:18.102Z,0.72
2022-12-08T01:54:24.986Z,0.70
2022-12-08T01:59:28.823Z,0.68
2022-12-08T02:04:31.630Z,0.67
2022-12-08T02:09:36.662Z,0.63
2022-12-08T02:14:39.876Z,0.62
2022-12-08T02:20:10.379Z,0.58
2022-12-08T02:25:39.458Z,0.58
2022-12-08T02:31:07.184Z,0.53
2022-12-08T02:36:31.286Z,0.50
2022-12-08T02:41:56.881Z,0.47
2022-12-08T02:47:06.325Z,0.46
2022-12-08T02:52:12.141Z,0.45
2022-12-08T02:57:59.413Z,0.44
2022-12-08T03:03:29.392Z,0.41
2022-12-08T03:08:51.343Z,0.40
2022-12-08T03:13:59.150Z,0.35
2022-12-08T03:19:10.134Z,0.31
2022-12-08T03:24:15.078Z,0.26
2022-12-08T03:29:18.116Z,0.22
2022-12-08T03:34:23.459Z,0.18
2022-12-08T03:39:26.276Z,0.16
2022-12-08T03:44:28.980Z,0.13
2022-12-08T03:49:31.686Z,0.13
2022-12-08T03:54:34.377Z,0.12
2022-12-08T03:59:37.147Z,0.13
2022-12-08T04:04:40.079Z,0.13
2022-12-08T04:09:42.982Z,0.14
2022-12-08T04:14:45.668Z,0.16
2022-12-08T04:19:48.381Z,0.19
2022-12-08T04:24:51.068Z,0.22
2022-12-08T04:29:53.766Z,0.27
2022-12-08T04:34:56.461Z,0.32
2022-12-08T04:39:59.160Z,0.34
2022-12-08T04:45:02.060Z,0.38
2022-12-08T04:50:06.484Z,0.41
2022-12-08T04:55:09.617Z,0.44
2022-12-08T05:00:13.738Z,0.49
2022-12-08T05:05:16.560Z,0.49
2022-12-08T05:10:19.272Z,0.51
2022-12-08T05:15:21.969Z,0.54
2022-12-08T05:20:24.760Z,0.53
2022-12-08T05:25:27.465Z,0.52
2022-12-08T05:30:30.266Z,0.51
2022-12-08T05:35:32.937Z,0.51
2022-12-08T05:40:38.946Z,0.52
2022-12-08T05:45:41.763Z,0.53
2022-12-08T05:50:49.132Z,0.51
2022-12-08T05:55:51.836Z,0.53
2022-12-08T06:00:54.833Z,0.53
2022-12-08T06:05:58.009Z,0.53
2022-12-08T06:11:00.998Z,0.52
2022-12-08T06:16:07.436Z,0.53
2022-12-08T06:21:13.028Z,0.54
2022-12-08T06:26:17.254Z,0.55
2022-12-08T06:31:22.904Z,0.56
2022-12-08T06:36:28.099Z,0.56
2022-12-08T06:41:30.882Z,0.56
2022-12-08T06:46:33.734Z,0.58
2022-12-08T06:51:36.642Z,0.57
2022-12-08T06:56:39.449Z,0.58
2022-12-08T07:01:42.206Z,0.60
2022-12-08T07:06:45.109Z,0.59
2022-12-08T07:11:47.986Z,0.62
2022-12-08T07:16:52.297Z,0.63
2022-12-08T07:21:55.156Z,0.64
2022-12-08T07:26:57.829Z,0.66
2022-12-08T07:32:00.612Z,0.67
2022-12-08T07:37:03.546Z,0.71
2022-12-08T07:42:06.552Z,0.74
2022-12-08T07:47:09.525Z,0.75
2022-12-08T07:52:12.455Z,0.76
2022-12-08T07:57:15.548Z,0.76
2022-12-08T08:02:26.909Z,0.77
2022-12-08T08:07:31.254Z,0.81
2022-12-08T08:12:34.109Z,0.83
2022-12-08T08:17:37.866Z,0.85
2022-12-08T08:22:40.664Z,0.90
2022-12-08T08:27:44.006Z,0.89
2022-12-08T08:32:46.893Z,0.86
2022-12-08T08:37:49.808Z,0.82
2022-12-08T08:42:52.956Z,0.80
2022-12-08T08:47:55.757Z,0.82
2022-12-08T08:52:58.474Z,0.90
2022-12-08T08:58:01.259Z,0.97
2022-12-08T09:03:04.147Z,1.01
2022-12-08T09:08:07.190Z,1.05
2022-12-08T09:13:09.945Z,1.09
2022-12-08T09:18:12.786Z,1.04
2022-12-08T09:23:15.569Z,0.96
2022-12-08T09:28:18.482Z,0.98
2022-12-08T09:33:21.164Z,1.03
2022-12-08T09:38:23.972Z,1.03
2022-12-08T09:44:01.386Z,1.02
2022-12-08T09:49:05.523Z,1.09
2022-12-08T09:54:34.321Z,0.97
2022-12-08T09:59:37.152Z,0.84
2022-12-08T10:04:41.295Z,0.78
2022-12-08T10:10:04.439Z,0.78
2022-12-08T10:15:42.027Z,0.80
2022-12-08T10:20:48.171Z,0.77
2022-12-08T10:26:00.372Z,0.84
2022-12-08T10:31:04.090Z,1.02
2022-12-08T10:36:07.293Z,1.29
2022-12-08T10:41:10.116Z,1.57
2022-12-08T10:46:17.343Z,1.68
2022-12-08T10:51:27.082Z,1.65
2022-12-08T10:56:31.223Z,1.65
2022-12-08T11:01:39.145Z,1.58
2022-12-08T11:06:42.829Z,1.45
2022-12-08T11:11:48.076Z,1.32
2022-12-08T11:16:53.721Z,1.24
2022-12-08T11:21:56.597Z,1.25
2022-12-08T11:27:04.453Z,1.39
2022-12-08T11:32:16.005Z,1.45
2022-12-08T11:37:40.121Z,1.46
2022-12-08T11:43:24.445Z,1.54
2022-12-08T11:48:31.532Z,1.76
2022-12-08T11:53:41.545Z,1.89
2022-12-08T11:58:56.720Z,1.96
2022-12-08T12:04:21.703Z,2.01
2022-12-08T12:09:39.825Z,1.98
2022-12-08T12:14:45.274Z,1.89
2022-12-08T12:19:50.001Z,1.83
2022-12-08T12:24:53.163Z,1.81
2022-12-08T12:30:00.834Z,1.73
2022-12-08T12:35:04.952Z,1.66
2022-12-08T12:40:23.947Z,1.59
2022-12-08T12:45:34.362Z,1.55
2022-12-08T12:50:52.079Z,1.52
2022-12-08T12:55:56.210Z,1.49
2022-12-08T13:01:21.495Z,1.43
2022-12-08T13:06:38.008Z,1.36
2022-12-08T13:11:55.002Z,1.26
2022-12-08T13:17:01.419Z,1.16
2022-12-08T13:22:24.477Z,1.04
2022-12-08T13:27:34.190Z,1.02
2022-12-08T13:38:22.741Z,1.02
2022-12-08T13:43:34.037Z,1.00
2022-12-08T13:50:36.636Z,0.96
2022-12-08T13:55:19.694Z,0.95
2022-12-08T13:59:53.553Z,0.99
2022-12-08T14:10:27.246Z,0.94
2022-12-08T14:15:37.609Z,0.99
2022-12-08T14:21:19.039Z,1.08
2022-12-08T14:26:06.078Z,1.10
2022-12-08T14:31:09.289Z,1.09
2022-12-08T14:36:15.798Z,1.14
2022-12-08T14:41:27.154Z,1.18
2022-12-08T14:46:30.022Z,1.22
2022-12-08T14:51:33.434Z,1.28
2022-12-08T14:56:39.745Z,1.30
2022-12-08T15:01:43.692Z,1.34
2022-12-08T15:07:01.282Z,1.38
2022-12-08T15:12:26.358Z,1.41
2022-12-08T15:17:49.075Z,1.44
2022-12-08T15:22:53.024Z,1.44
2022-12-08T15:27:58.660Z,1.47
2022-12-08T15:33:01.412Z,1.48
2022-12-08T15:38:05.259Z,1.47
2022-12-08T15:43:11.463Z,1.49
2022-12-08T15:48:23.094Z,1.49
2022-12-08T15:53:26.099Z,1.50
2022-12-08T15:58:52.879Z,1.50
2022-12-08T16:09:31.248Z,1.51
2022-12-08T16:15:39.861Z,1.52
2022-12-08T16:19:57.335Z,1.57
2022-12-08T16:25:14.773Z,1.62
2022-12-08T16:30:21.662Z,1.64
2022-12-08T16:35:24.357Z,1.67
2022-12-08T16:40:27.437Z,1.70
2022-12-08T16:45:30.419Z,1.68
2022-12-08T16:50:35.201Z,1.68
2022-12-08T16:55:38.786Z,1.68
2022-12-08T17:00:41.875Z,1.68
2022-12-08T17:05:44.793Z,1.69
2022-12-08T17:11:07.422Z,1.69
2022-12-08T17:16:14.213Z,1.69
2022-12-08T17:21:18.466Z,1.71
2022-12-08T17:26:21.226Z,1.70
2022-12-08T17:31:29.374Z,1.71
2022-12-08T17:36:32.816Z,1.71
2022-12-08T17:41:35.570Z,1.72
2022-12-08T17:46:41.715Z,1.72
2022-12-08T17:51:50.946Z,1.71
2022-12-08T17:56:55.048Z,1.74
2022-12-08T18:01:58.918Z,1.75
2022-12-08T18:07:03.510Z,1.76
2022-12-08T18:12:06.510Z,1.77
2022-12-08T18:17:09.275Z,1.78
2022-12-08T18:22:12.560Z,1.79
2022-12-08T18:27:15.401Z,1.81
2022-12-08T18:32:18.634Z,1.82
2022-12-08T18:37:21.435Z,1.86
2022-12-08T18:42:24.241Z,1.91
2022-12-08T18:47:26.937Z,1.94
2022-12-08T18:52:32.224Z,1.95
2022-12-08T18:57:39.945Z,1.98
2022-12-08T19:02:42.995Z,1.99
2022-12-08T19:07:46.598Z,2.00
2022-12-08T19:12:51.042Z,2.02
2022-12-08T19:17:53.781Z,2.02
2022-12-08T19:22:56.581Z,2.06
2022-12-08T19:27:59.295Z,2.08
2022-12-08T19:33:01.996Z,2.10
2022-12-08T19:38:05.087Z,2.12
2022-12-08T19:43:35.037Z,2.14
2022-12-08T19:48:37.752Z,2.18
2022-12-08T19:53:47.377Z,2.20
2022-12-08T19:58:50.707Z,2.23
2022-12-08T20:03:53.800Z,2.23
2022-12-08T20:08:56.661Z,2.27
2022-12-08T20:13:59.492Z,2.28
2022-12-08T20:19:03.105Z,2.31
2022-12-08T20:24:06.648Z,2.33
2022-12-08T20:29:09.565Z,2.34
2022-12-08T20:34:16.977Z,2.37
2022-12-08T20:39:19.777Z,2.39
2022-12-08T20:44:22.801Z,2.38
2022-12-08T20:49:28.523Z,2.36
2022-12-08T20:54:37.064Z,2.31
2022-12-08T20:59:40.087Z,2.26
2022-12-08T21:04:43.049Z,2.18
2022-12-08T21:09:46.050Z,2.11
2022-12-08T21:14:48.909Z,2.05
2022-12-08T21:19:51.687Z,1.93
2022-12-08T21:24:54.476Z,1.82
2022-12-08T21:29:57.151Z,1.70
2022-12-08T21:34:59.905Z,1.58
2022-12-08T21:40:03.195Z,1.51
2022-12-08T21:45:06.810Z,1.44
2022-12-08T21:50:11.451Z,1.40
2022-12-08T21:55:16.981Z,1.34
2022-12-08T22:00:20.952Z,1.30
2022-12-08T22:05:24.411Z,1.29
2022-12-08T22:10:27.132Z,1.25
2022-12-08T22:15:30.355Z,1.24
2022-12-08T22:20:33.170Z,1.24
2022-12-08T22:25:36.140Z,1.22
2022-12-08T22:30:39.706Z,1.19
2022-12-08T22:35:42.737Z,1.19
2022-12-08T22:40:45.751Z,1.19
2022-12-08T22:45:48.992Z,1.19
2022-12-08T22:50:59.692Z,1.19
2022-12-08T22:56:10.989Z,1.25
2022-12-08T23:01:26.155Z,1.27
2022-12-08T23:06:30.861Z,1.27
2022-12-08T23:11:33.781Z,1.30
2022-12-08T23:16:37.124Z,1.34
2022-12-08T23:21:40.319Z,1.35
2022-12-08T23:26:43.406Z,1.30
2022-12-08T23:31:46.381Z,1.32
2022-12-08T23:36:49.861Z,1.33
2022-12-08T23:41:52.947Z,1.26
2022-12-08T23:46:56.101Z,1.23
2022-12-08T23:51:59.385Z,1.22
2022-12-08T23:57:02.097Z,1.26
